createdAt,value
2022-11-05T00:02:18.423Z,998.29
2022-11-05T00:07:18.369Z,998.29
2022-11-05T00:12:18.288Z,998.31
2022-11-05T00:17:18.219Z,998.34
2022-11-05T00:22:18.277Z,998.41
2022-11-05T00:27:18.107Z,998.45
2022-11-05T00:32:18.064Z,998.52
2022-11-05T00:37:18.033Z,998.56
2022-11-05T00:42:17.962Z,998.63
2022-11-05T00:47:17.987Z,998.72
2022-11-05T00:52:17.907Z,998.78
2022-11-05T00:57:17.865Z,998.79
2022-11-05T01:02:26.869Z,998.81
2022-11-05T01:07:17.669Z,998.89
2022-11-05T01:12:17.605Z,998.90
2022-11-05T01:17:17.564Z,998.87
2022-11-05T01:22:17.505Z,998.97
2022-11-05T01:27:17.577Z,999.03
2022-11-05T01:32:17.475Z,999.11
2022-11-05T01:37:17.416Z,999.11
2022-11-05T01:42:17.404Z,999.11
2022-11-05T01:47:17.351Z,999.07
2022-11-05T01:52:17.262Z,999.21
2022-11-05T01:57:17.121Z,999.28
2022-11-05T02:02:17.145Z,999.32
2022-11-05T02:07:17.028Z,999.23
2022-11-05T02:12:16.965Z,999.34
2022-11-05T02:17:16.957Z,999.40
2022-11-05T02:22:16.902Z,999.45
2022-11-05T02:27:16.846Z,999.49
2022-11-05T02:32:16.797Z,999.51
2022-11-05T02:37:16.732Z,999.58
2022-11-05T02:42:16.654Z,999.62
2022-11-05T02:47:18.334Z,999.58
2022-11-05T02:52:16.548Z,999.56
2022-11-05T02:57:16.582Z,999.47
2022-11-05T03:02:17.707Z,999.55
2022-11-05T03:07:16.439Z,999.57
2022-11-05T03:12:16.395Z,999.48
2022-11-05T03:17:16.254Z,999.54
2022-11-05T03:22:16.213Z,999.45
2022-11-05T03:27:16.143Z,999.50
2022-11-05T03:32:16.122Z,999.50
2022-11-05T03:37:16.190Z,999.53
2022-11-05T03:42:17.057Z,999.57
2022-11-05T03:47:15.974Z,999.62
2022-11-05T03:52:15.900Z,999.71
2022-11-05T03:57:15.873Z,999.68
2022-11-05T04:02:16.874Z,999.79
2022-11-05T04:07:15.720Z,999.84
2022-11-05T04:12:15.670Z,999.90
2022-11-05T04:17:15.605Z,1000.02
2022-11-05T04:22:15.546Z,999.94
2022-11-05T04:27:15.648Z,1000.01
2022-11-05T04:32:15.527Z,999.92
2022-11-05T04:37:16.482Z,1000.05
2022-11-05T04:42:16.422Z,1000.01
2022-11-05T04:47:15.365Z,1000.01
2022-11-05T04:52:15.223Z,1000.03
2022-11-05T04:57:15.182Z,1000.13
2022-11-05T05:02:15.219Z,1000.09
2022-11-05T05:07:15.111Z,1000.17
2022-11-05T05:12:15.050Z,1000.10
2022-11-05T05:17:14.985Z,1000.15
2022-11-05T05:22:14.924Z,1000.23
2022-11-05T05:27:14.878Z,1000.22
2022-11-05T05:32:14.787Z,1000.26
2022-11-05T05:37:14.727Z,1000.26
2022-11-05T05:42:14.696Z,1000.27
2022-11-05T05:47:14.623Z,1000.39
2022-11-05T05:52:14.719Z,1000.32
2022-11-05T05:57:14.614Z,1000.37
2022-11-05T06:02:14.585Z,1000.45
2022-11-05T06:07:14.491Z,1000.48
2022-11-05T06:12:14.437Z,1000.64
2022-11-05T06:17:14.327Z,1000.69
2022-11-05T06:22:14.305Z,1000.74
2022-11-05T06:27:14.241Z,1000.83
2022-11-05T06:32:15.209Z,1000.87
2022-11-05T06:37:14.168Z,1000.78
2022-11-05T06:42:18.771Z,1000.92
2022-11-05T06:47:15.019Z,1000.93
2022-11-05T06:52:13.941Z,1000.95
2022-11-05T06:57:13.880Z,1001.02
2022-11-05T07:02:13.934Z,1001.09
2022-11-05T07:21:53.437Z,1001.25
2022-11-05T07:26:54.299Z,1001.26
2022-11-05T07:31:55.668Z,1001.34
2022-11-05T07:37:10.995Z,1001.39
2022-11-05T07:42:04.557Z,1001.47
2022-11-05T07:46:56.437Z,1001.47
2022-11-05T07:51:59.502Z,1001.49
2022-11-05T07:56:53.528Z,1001.43
2022-11-05T08:01:53.801Z,1001.54
2022-11-05T08:06:55.459Z,1001.51
2022-11-05T08:11:57.402Z,1001.56
2022-11-05T08:16:53.824Z,1001.56
2022-11-05T08:21:52.653Z,1001.63
2022-11-05T08:26:54.597Z,1001.64
2022-11-05T08:31:54.817Z,1001.65
2022-11-05T08:36:53.574Z,1001.66
2022-11-05T08:41:52.476Z,1001.54
2022-11-05T08:46:53.368Z,1001.59
2022-11-05T08:51:52.357Z,1001.64
2022-11-05T08:56:52.272Z,1001.66
2022-11-05T09:01:52.385Z,1001.68
2022-11-05T09:06:52.150Z,1001.68
2022-11-05T09:12:15.904Z,1001.64
2022-11-05T09:16:53.008Z,1001.60
2022-11-05T09:21:52.017Z,1001.66
2022-11-05T09:26:52.002Z,1001.71
2022-11-05T09:31:55.278Z,1001.81
2022-11-05T09:36:51.909Z,1001.73
2022-11-05T09:41:51.898Z,1001.81
2022-11-05T09:46:51.689Z,1001.69
2022-11-05T09:51:51.650Z,1001.73
2022-11-05T09:56:51.582Z,1001.65
2022-11-05T10:01:51.705Z,1001.73
2022-11-05T10:06:51.484Z,1001.73
2022-11-05T10:11:51.418Z,1001.77
2022-11-05T10:16:51.452Z,1001.67
2022-11-05T10:22:06.117Z,1001.74
2022-11-05T10:26:52.443Z,1001.77
2022-11-05T10:31:51.204Z,1001.75
2022-11-05T10:36:51.217Z,1001.76
2022-11-05T10:41:51.095Z,1001.77
2022-11-05T10:46:51.041Z,1001.80
2022-11-05T10:51:50.997Z,1001.85
2022-11-05T10:56:50.984Z,1001.81
2022-11-05T11:01:50.990Z,1001.84
2022-11-05T11:06:50.863Z,1001.78
2022-11-05T11:11:50.798Z,1001.86
2022-11-05T11:16:50.699Z,1001.73
2022-11-05T11:21:50.692Z,1001.73
2022-11-05T11:26:50.601Z,1001.78
2022-11-05T11:31:50.555Z,1001.71
2022-11-05T11:36:50.492Z,1001.70
2022-11-05T11:41:50.645Z,1001.68
2022-11-05T11:46:51.408Z,1001.73
2022-11-05T11:51:50.385Z,1001.70
2022-11-05T11:56:50.358Z,1001.69
2022-11-05T12:01:50.459Z,1001.65
2022-11-05T12:06:50.153Z,1001.71
2022-11-05T12:11:50.133Z,1001.74
2022-11-05T12:16:50.054Z,1001.77
2022-11-05T12:21:53.649Z,1001.81
2022-11-05T12:26:49.990Z,1001.84
2022-11-05T12:31:49.871Z,1001.78
2022-11-05T12:36:49.797Z,1001.72
2022-11-05T12:41:49.745Z,1001.68
2022-11-05T12:46:49.703Z,1001.71
2022-11-05T12:51:49.679Z,1001.63
2022-11-05T12:56:49.578Z,1001.64
2022-11-05T13:01:49.674Z,1001.69
2022-11-05T13:06:58.356Z,1001.58
2022-11-05T13:11:49.375Z,1001.53
2022-11-05T13:16:50.344Z,1001.41
2022-11-05T13:21:49.395Z,1001.46
2022-11-05T13:26:49.313Z,1001.41
2022-11-05T13:31:49.197Z,1001.45
2022-11-05T13:36:49.115Z,1001.38
2022-11-05T13:41:49.076Z,1001.31
2022-11-05T13:46:49.029Z,1001.25
2022-11-05T13:51:49.033Z,1001.23
2022-11-05T13:56:48.983Z,1001.18
2022-11-05T14:01:51.108Z,1001.21
2022-11-05T14:06:52.346Z,1001.15
2022-11-05T14:11:48.809Z,1001.22
2022-11-05T14:16:48.754Z,1001.11
2022-11-05T14:21:48.640Z,1001.06
2022-11-05T14:26:48.554Z,1001.24
2022-11-05T14:32:07.695Z,1001.30
2022-11-05T14:36:49.487Z,1001.04
2022-11-05T14:41:48.374Z,1001.06
2022-11-05T14:46:48.372Z,1000.96
2022-11-05T14:51:48.293Z,1000.86
2022-11-05T14:56:53.282Z,1000.83
2022-11-05T15:01:49.244Z,1000.89
2022-11-05T15:06:48.123Z,1001.08
2022-11-05T15:11:48.076Z,1001.01
2022-11-05T15:16:48.103Z,1001.07
2022-11-05T15:21:48.065Z,1001.08
2022-11-05T15:26:47.915Z,1001.02
2022-11-05T15:31:48.024Z,1001.06
2022-11-05T15:36:47.805Z,1001.02
2022-11-05T15:41:48.944Z,1001.06
2022-11-05T15:46:47.870Z,1001.17
2022-11-05T15:51:47.796Z,1001.11
2022-11-05T15:56:47.657Z,1001.09
2022-11-05T16:01:47.633Z,1001.09
2022-11-05T16:06:47.461Z,1001.09
2022-11-05T16:11:47.432Z,1001.04
2022-11-05T16:16:47.385Z,1001.17
2022-11-05T16:21:47.278Z,1001.18
2022-11-05T16:27:03.426Z,1001.17
2022-11-05T16:31:48.304Z,1001.07
2022-11-05T16:36:47.179Z,1001.10
2022-11-05T16:41:47.197Z,1001.12
2022-11-05T16:46:46.998Z,1001.16
2022-11-05T16:51:46.998Z,1001.24
2022-11-05T16:56:46.896Z,1001.25
2022-11-05T17:01:50.439Z,1001.16
2022-11-05T17:06:47.829Z,1001.17
2022-11-05T17:11:46.815Z,1001.16
2022-11-05T17:16:46.703Z,1001.15
2022-11-05T17:21:46.642Z,1001.11
2022-11-05T17:26:46.587Z,1001.09
2022-11-05T17:31:46.577Z,1001.13
2022-11-05T17:36:47.512Z,1001.15
2022-11-05T17:41:46.535Z,1001.12
2022-11-05T17:46:46.471Z,1001.19
2022-11-05T17:51:46.323Z,1001.15
2022-11-05T17:56:46.252Z,1001.13
2022-11-05T18:01:46.351Z,1001.10
2022-11-05T18:06:46.207Z,1001.26
2022-11-05T18:11:46.139Z,1001.23
2022-11-05T18:16:46.060Z,1001.26
2022-11-05T18:21:46.087Z,1001.34
2022-11-05T18:26:46.007Z,1001.32
2022-11-05T18:31:45.883Z,1001.29
2022-11-05T18:36:45.824Z,1001.26
2022-11-05T18:41:45.840Z,1001.28
2022-11-05T18:46:59.592Z,1001.27
2022-11-05T18:51:46.759Z,1001.22
2022-11-05T18:56:45.833Z,1001.21
2022-11-05T19:01:45.776Z,1001.18
2022-11-05T19:06:54.470Z,1001.24
2022-11-05T19:11:45.447Z,1001.26
2022-11-05T19:16:45.418Z,1001.19
2022-11-05T19:21:45.447Z,1001.28
2022-11-05T19:26:46.377Z,1001.27
2022-11-05T19:31:45.285Z,1001.35
2022-11-05T19:36:45.222Z,1001.38
2022-11-05T19:41:45.200Z,1001.35
2022-11-05T19:46:45.178Z,1001.27
2022-11-05T19:51:45.079Z,1001.31
2022-11-05T19:56:44.979Z,1001.28
2022-11-05T20:01:45.081Z,1001.22
2022-11-05T20:06:44.881Z,1001.22
2022-11-05T20:11:44.839Z,1001.25
2022-11-05T20:16:44.829Z,1001.22
2022-11-05T20:21:44.724Z,1001.29
2022-11-05T20:26:44.665Z,1001.37
2022-11-05T20:31:44.605Z,1001.36
2022-11-05T20:36:44.543Z,1001.29
2022-11-05T20:41:44.499Z,1001.23
2022-11-05T20:46:44.419Z,1001.27
2022-11-05T20:51:44.377Z,1001.14
2022-11-05T20:56:44.306Z,1001.23
2022-11-05T21:01:44.332Z,1001.23
2022-11-05T21:06:44.221Z,1001.35
2022-11-05T21:11:44.165Z,1001.55
2022-11-05T21:16:44.119Z,1001.54
2022-11-05T21:21:44.101Z,1001.51
2022-11-05T21:26:44.040Z,1001.46
2022-11-05T21:31:44.065Z,1001.49
2022-11-05T21:36:43.924Z,1001.47
2022-11-05T21:41:43.883Z,1001.37
2022-11-05T21:46:44.023Z,1001.09
2022-11-05T21:51:43.872Z,1001.01
2022-11-05T21:56:43.714Z,1000.91
2022-11-05T22:01:43.930Z,1000.90
2022-11-05T22:06:43.698Z,1000.89
2022-11-05T22:11:43.731Z,1000.97
2022-11-05T22:16:43.596Z,1000.96
2022-11-05T22:21:44.545Z,1001.03
2022-11-05T22:26:43.517Z,1000.86
2022-11-05T22:31:43.462Z,1000.81
2022-11-05T22:36:44.372Z,1000.83
2022-11-05T22:41:43.408Z,1000.49
2022-11-05T22:46:43.270Z,1000.60
2022-11-05T22:51:43.196Z,1000.62
2022-11-05T22:56:43.199Z,1000.61
2022-11-05T23:01:43.194Z,1000.52
2022-11-05T23:06:43.135Z,1000.48
2022-11-05T23:11:43.038Z,1000.50
2022-11-05T23:16:42.991Z,1000.53
2022-11-05T23:21:42.797Z,1000.47
2022-11-05T23:26:42.812Z,1000.41
2022-11-05T23:31:42.685Z,1000.27
2022-11-05T23:36:42.637Z,1000.39
2022-11-05T23:41:42.572Z,1000.31
2022-11-05T23:46:42.591Z,1000.37
2022-11-05T23:51:42.540Z,1000.30
2022-11-05T23:56:42.553Z,1000.21
